Time;durP1;ratioP1;P1;durP2;ratioP2;P2;SDS_P1;SDS_P2;PMS_P1;PMS_P2;Temp;Humidity;BMP_temperature;BMP_pressure;BME280_temperature;BME280_humidity;BME280_pressure;Samples;Min_cycle;Max_cycle;Signal;HPM_P1;HPM_P2
2021/04/03 00:01:32;;;;;;;50.88;20.65;;;;;;;6.72;55.57;99714.95;1753244;82;21730;-67
2021/04/03 00:04:06;;;;;;;45.43;19.80;;;;;;;6.64;55.88;99706.92;1752245;82;21287;-69
2021/04/03 00:06:39;;;;;;;51.42;21.40;;;;;;;6.62;56.27;99710.13;1753357;82;21381;-68
2021/04/03 00:09:12;;;;;;;37.20;15.15;;;;;;;6.58;56.51;99706.14;1752218;82;21755;-68
2021/04/03 00:11:46;;;;;;;40.83;18.15;;;;;;;6.60;57.90;99698.56;1751633;82;21674;-68
2021/04/03 00:14:20;;;;;;;30.00;13.80;;;;;;;6.66;58.58;99703.75;1752499;81;21156;-67
2021/04/03 00:16:53;;;;;;;23.37;12.13;;;;;;;6.74;59.45;99702.16;1753479;82;21664;-68
2021/04/03 00:19:27;;;;;;;19.62;10.58;;;;;;;6.85;59.46;99703.91;1751888;82;21706;-68
2021/04/03 00:22:00;;;;;;;21.33;9.43;;;;;;;6.93;59.74;99709.28;1753205;82;21707;-68
2021/04/03 00:24:35;;;;;;;18.42;8.93;;;;;;;7.02;59.73;99708.52;1731350;82;21220;-68
2021/04/03 00:27:09;;;;;;;34.85;13.72;;;;;;;7.12;59.86;99702.91;1753004;82;21675;-68
2021/04/03 00:29:41;;;;;;;24.52;10.65;;;;;;;7.21;59.84;99708.64;1752129;82;21335;-68
2021/04/03 00:32:14;;;;;;;23.80;10.67;;;;;;;7.30;59.90;99708.37;1752909;82;22088;-69
2021/04/03 00:34:47;;;;;;;18.13;9.03;;;;;;;7.36;59.84;99701.33;1752431;82;21712;-68
2021/04/03 00:37:20;;;;;;;23.98;9.98;;;;;;;7.43;59.83;99707.67;1753248;82;21125;-68
2021/04/03 00:39:53;;;;;;;17.95;9.73;;;;;;;7.48;59.72;99708.94;1752077;82;21829;-69
2021/04/03 00:42:27;;;;;;;22.20;9.25;;;;;;;7.55;59.66;99707.14;1732055;82;21213;-67
2021/04/03 00:45:01;;;;;;;17.48;9.38;;;;;;;7.60;59.77;99701.03;1707917;82;21696;-65
2021/04/03 00:47:34;;;;;;;19.77;9.25;;;;;;;7.66;59.74;99699.22;1739400;82;21846;-67
2021/04/03 00:50:09;;;;;;;22.25;9.10;;;;;;;7.70;59.82;99698.00;1738525;82;21846;-69
2021/04/03 00:52:42;;;;;;;18.25;8.50;;;;;;;7.73;59.68;99692.06;1739262;82;21193;-68
2021/04/03 00:55:17;;;;;;;23.85;9.48;;;;;;;7.77;59.67;99694.73;1738273;82;21189;-68
2021/04/03 00:57:51;;;;;;;15.93;8.15;;;;;;;7.82;59.72;99690.43;1739602;82;21772;-68
2021/04/03 01:00:25;;;;;;;21.50;9.40;;;;;;;7.84;59.86;99693.25;1708039;82;22067;-67
2021/04/03 01:02:58;;;;;;;20.77;9.83;;;;;;;7.86;59.86;99691.80;1738040;82;21810;-66
2021/04/03 01:05:31;;;;;;;;;;;;;;;7.87;59.83;99687.78;1740645;82;21295;-66
2021/04/03 01:08:05;;;;;;;18.23;8.90;;;;;;;7.89;60.04;99690.25;1745800;80;20191;-66
2021/04/03 01:10:43;;;;;;;21.77;9.48;;;;;;;7.89;60.17;99691.08;1738375;82;21295;-66
2021/04/03 01:13:43;;;;;;;21.52;9.25;;;;;;;7.91;60.14;99690.46;1738818;82;21362;-67
2021/04/03 01:16:22;;;;;;;20.10;9.65;;;;;;;7.92;60.12;99692.59;1737510;82;21189;-66
2021/04/03 01:19:12;;;;;;;21.95;9.40;;;;;;;7.92;60.28;99694.73;1738888;82;21157;-67
2021/04/03 01:22:34;;;;;;;20.50;10.10;;;;;;;7.91;60.30;99692.23;1739010;82;21130;-67
2021/04/03 01:25:41;;;;;;;23.27;9.53;;;;;;;7.93;60.36;99697.66;1738003;82;21827;-67
2021/04/03 01:28:54;;;;;;;22.20;10.38;;;;;;;7.93;60.36;99696.36;1739273;82;21299;-67
2021/04/03 01:31:28;;;;;;;21.60;10.32;;;;;;;7.93;60.45;99690.31;1739135;82;21252;-67
2021/04/03 01:34:02;;;;;;;24.07;10.70;;;;;;;7.90;60.47;99690.61;1738369;82;21260;-67
2021/04/03 01:36:38;;;;;;;30.55;12.25;;;;;;;7.90;60.53;99688.00;1739335;82;21264;-68
2021/04/03 01:39:18;;;;;;;28.20;11.97;;;;;;;7.88;60.56;99689.92;1739058;82;21740;-67
2021/04/03 01:41:54;;;;;;;31.10;14.85;;;;;;;7.87;60.55;99690.39;1708802;82;21256;-67
2021/04/03 01:44:35;;;;;;;25.02;10.80;;;;;;;7.84;60.54;99689.34;1741461;82;21845;-67
2021/04/03 01:47:09;;;;;;;21.10;10.70;;;;;;;7.82;60.64;99687.83;1752810;82;21137;-67
2021/04/03 01:49:45;;;;;;;22.35;10.20;;;;;;;7.81;60.63;99688.80;1752825;82;21322;-67
2021/04/03 01:52:22;;;;;;;25.77;10.70;;;;;;;7.78;60.67;99685.98;1752997;82;21703;-67
2021/04/03 01:55:01;;;;;;;22.22;9.23;;;;;;;7.76;60.56;99688.37;1752251;82;21220;-67
2021/04/03 01:57:36;;;;;;;27.22;11.18;;;;;;;7.67;60.54;99682.15;1753291;82;21314;-67
2021/04/03 02:00:13;;;;;;;26.67;10.90;;;;;;;7.59;60.62;99682.00;1753568;82;21212;-67
2021/04/03 02:02:48;;;;;;;20.75;10.05;;;;;;;7.52;60.78;99686.55;1751925;82;21794;-67
2021/04/03 02:05:23;;;;;;;22.05;9.53;;;;;;;7.44;60.98;99678.91;1751866;82;21327;-67
2021/04/03 02:07:57;;;;;;;23.42;10.20;;;;;;;7.40;61.10;99687.12;1750481;82;21216;-67
2021/04/03 02:10:32;;;;;;;22.80;9.88;;;;;;;7.36;61.26;99680.03;1752887;82;21235;-67
2021/04/03 02:13:08;;;;;;;22.02;10.03;;;;;;;7.34;61.40;99676.73;1753016;82;21711;-67
2021/04/03 02:15:43;;;;;;;21.70;10.68;;;;;;;7.33;61.57;99671.16;1751164;82;21168;-67
2021/04/03 02:18:16;;;;;;;19.20;9.93;;;;;;;7.30;61.72;99670.62;1752931;82;21188;-66
2021/04/03 02:20:50;;;;;;;17.10;10.10;;;;;;;7.28;61.84;99675.13;1732179;82;21704;-66
2021/04/03 02:23:23;;;;;;;14.00;7.25;;;;;;;7.23;62.06;99670.78;1753395;82;21136;-66
2021/04/03 02:25:57;;;;;;;24.98;9.70;;;;;;;7.17;62.24;99676.02;1751919;82;21287;-67
2021/04/03 02:28:33;;;;;;;21.30;10.85;;;;;;;7.13;62.50;99679.02;1753264;82;21331;-66
2021/04/03 02:31:06;;;;;;;25.92;10.75;;;;;;;7.10;62.64;99673.58;1752753;82;21818;-66
2021/04/03 02:33:41;;;;;;;18.70;10.45;;;;;;;7.05;62.81;99678.81;1751572;82;21198;-66
2021/04/03 02:36:14;;;;;;;23.55;11.75;;;;;;;6.99;63.01;99676.27;1751904;82;22249;-66
2021/04/03 02:38:49;;;;;;;24.55;11.80;;;;;;;6.96;63.19;99679.11;1753029;82;21776;-66
2021/04/03 02:41:27;;;;;;;21.73;10.55;;;;;;;6.94;63.37;99678.89;1752723;82;21193;-66
2021/04/03 02:44:18;;;;;;;20.90;10.32;;;;;;;6.92;63.57;99676.89;1753074;82;21211;-67
2021/04/03 02:47:17;;;;;;;19.27;10.10;;;;;;;6.91;63.69;99671.33;1751974;82;21823;-67
2021/04/03 02:50:04;;;;;;;23.47;11.65;;;;;;;6.90;63.81;99676.20;1752995;82;21260;-67
2021/04/03 02:52:39;;;;;;;24.37;11.68;;;;;;;6.90;63.99;99674.43;1751653;82;21743;-68
2021/04/03 02:55:12;;;;;;;25.60;10.75;;;;;;;6.89;64.22;99673.23;1752769;82;21152;-68
2021/04/03 02:57:46;;;;;;;;;;;;;;;6.88;64.42;99678.11;1754257;82;21248;-68
2021/04/03 03:00:20;;;;;;;23.55;9.33;;;;;;;6.90;64.65;99687.91;1753341;82;20179;-67
2021/04/03 03:02:53;;;;;;;25.80;9.45;;;;;;;6.89;64.85;99685.78;1751743;82;21636;-67
2021/04/03 03:05:28;;;;;;;23.07;10.28;;;;;;;6.91;65.02;99690.38;1752779;82;21287;-67
2021/04/03 03:08:02;;;;;;;20.27;10.30;;;;;;;6.97;65.18;99692.48;1751610;82;21291;-68
2021/04/03 03:10:35;;;;;;;22.95;10.95;;;;;;;7.02;65.26;99690.80;1732353;82;21597;-67
2021/04/03 03:13:10;;;;;;;24.10;10.70;;;;;;;7.07;65.32;99692.05;1751367;82;21232;-67
2021/04/03 03:15:45;;;;;;;21.80;10.72;;;;;;;7.12;65.32;99691.20;1752796;82;21189;-67
2021/04/03 03:18:19;;;;;;;21.02;10.25;;;;;;;7.18;65.31;99688.56;1751861;82;21735;-67
2021/04/03 03:20:52;;;;;;;17.23;9.55;;;;;;;7.21;65.18;99690.42;1753494;82;21160;-68
2021/04/03 03:23:26;;;;;;;30.55;12.18;;;;;;;7.23;65.08;99689.01;1725567;82;21747;-67
2021/04/03 03:26:00;;;;;;;31.50;13.98;;;;;;;7.27;65.05;99691.70;1752291;82;21216;-67
2021/04/03 03:28:35;;;;;;;46.58;18.35;;;;;;;7.31;64.95;99693.08;1751499;82;21715;-67
2021/04/03 03:31:08;;;;;;;64.62;22.58;;;;;;;7.34;64.88;99687.15;1753038;82;21675;-67
2021/04/03 03:33:42;;;;;;;53.90;20.88;;;;;;;7.41;64.76;99685.67;1753066;82;21160;-68
2021/04/03 03:36:16;;;;;;;42.67;16.48;;;;;;;7.46;64.60;99690.49;1752885;82;21156;-68
2021/04/03 03:38:51;;;;;;;24.85;12.43;;;;;;;7.49;64.46;99687.63;1751237;82;21287;-67
2021/04/03 03:41:28;;;;;;;24.07;10.82;;;;;;;7.51;64.29;99685.72;1756535;81;21259;-68
2021/04/03 03:44:06;;;;;;;21.15;10.40;;;;;;;7.52;64.12;99686.55;1752808;82;21826;-68
2021/04/03 03:46:39;;;;;;;18.27;10.03;;;;;;;7.54;64.03;99679.42;1752411;82;21220;-68
2021/04/03 03:49:13;;;;;;;24.52;10.45;;;;;;;7.57;63.87;99679.17;1753144;82;21683;-67
2021/04/03 03:51:46;;;;;;;24.20;11.50;;;;;;;7.60;63.76;99673.68;1753350;82;21149;-69
2021/04/03 03:54:19;;;;;;;;;;;;;;;7.62;63.67;99683.52;1755573;82;21286;-68
2021/04/03 03:56:52;;;;;;;25.27;10.38;;;;;;;7.62;63.54;99681.71;1752413;82;20167;-66
2021/04/03 03:59:27;;;;;;;21.12;10.63;;;;;;;7.59;63.49;99679.39;1752816;82;21679;-65
2021/04/03 04:02:00;;;;;;;23.18;10.82;;;;;;;7.60;63.47;99688.00;1753045;82;21217;-67
2021/04/03 04:04:35;;;;;;;20.82;10.43;;;;;;;7.61;63.42;99680.55;1753656;82;21169;-67
2021/04/03 04:07:10;;;;;;;21.50;10.20;;;;;;;7.64;63.33;99680.30;1752437;82;21180;-66
2021/04/03 04:09:44;;;;;;;19.17;10.30;;;;;;;7.69;63.21;99681.53;1753275;82;21307;-67
2021/04/03 04:12:18;;;;;;;23.85;10.13;;;;;;;7.74;63.13;99676.75;1753078;82;21177;-67
2021/04/03 04:14:53;;;;;;;22.05;10.98;;;;;;;7.86;62.92;99682.21;1753084;82;21271;-68
2021/04/03 04:17:26;;;;;;;22.65;9.75;;;;;;;7.94;62.67;99681.08;1752333;82;21715;-68
2021/04/03 04:19:59;;;;;;;18.93;10.03;;;;;;;7.99;62.51;99683.28;1753246;82;21185;-68
2021/04/03 04:22:34;;;;;;;20.52;10.35;;;;;;;8.04;62.37;99679.33;1752952;82;21187;-67
2021/04/03 04:25:09;;;;;;;;;;;;;;;8.14;62.18;99672.83;1755487;82;21700;-66
2021/04/03 04:27:42;;;;;;;22.07;10.10;;;;;;;8.36;61.78;99674.41;1750788;82;20229;-67
2021/04/03 04:30:17;;;;;;;18.27;10.05;;;;;;;8.62;61.36;99673.70;1752993;82;21184;-66
2021/04/03 04:32:51;;;;;;;23.60;10.43;;;;;;;8.88;60.66;99667.46;1750242;82;21216;-69
2021/04/03 04:35:25;;;;;;;22.98;11.30;;;;;;;9.09;59.95;99673.80;1753147;82;21160;-68
2021/04/03 04:38:00;;;;;;;22.67;11.30;;;;;;;9.20;59.53;99668.41;1751945;82;21203;-68
2021/04/03 04:40:34;;;;;;;21.15;11.68;;;;;;;9.29;59.18;99668.89;1752063;82;21172;-67
2021/04/03 04:43:09;;;;;;;25.23;11.43;;;;;;;9.53;58.95;99661.35;1752795;82;21307;-68
2021/04/03 04:45:43;;;;;;;25.85;13.18;;;;;;;9.93;58.14;99655.81;1732855;82;21161;-67
2021/04/03 04:48:16;;;;;;;22.00;11.35;;;;;;;10.14;57.20;99659.02;1752102;82;21331;-69
2021/04/03 04:50:51;;;;;;;20.32;10.85;;;;;;;10.15;56.66;99660.16;1751535;82;21141;-70
2021/04/03 04:53:25;;;;;;;25.45;11.60;;;;;;;10.54;56.07;99661.19;1753065;82;21767;-66
2021/04/03 04:56:00;;;;;;;20.27;10.85;;;;;;;10.93;55.25;99670.37;1753045;82;21727;-67
2021/04/03 04:58:35;;;;;;;30.92;10.38;;;;;;;11.20;53.82;99670.22;1751805;82;21279;-68
2021/04/03 05:01:08;;;;;;;21.35;9.58;;;;;;;11.25;53.14;99677.12;1752750;82;22009;-69
2021/04/03 05:03:43;;;;;;;20.97;10.30;;;;;;;11.31;53.01;99673.08;1751516;81;21307;-68
2021/04/03 05:06:16;;;;;;;31.37;11.30;;;;;;;11.40;52.57;99669.52;1753177;82;21196;-69
2021/04/03 05:08:50;;;;;;;25.77;11.25;;;;;;;11.58;51.98;99666.84;1752047;82;21189;-68
2021/04/03 05:11:23;;;;;;;24.90;11.15;;;;;;;11.69;51.74;99664.80;1753157;82;21160;-69
2021/04/03 05:13:57;;;;;;;25.90;11.45;;;;;;;11.85;51.15;99667.47;1753115;82;21181;-71
2021/04/03 05:16:30;;;;;;;29.23;11.68;;;;;;;12.14;50.42;99663.14;1753253;82;21264;-69
2021/04/03 05:19:03;;;;;;;21.17;10.48;;;;;;;12.58;49.47;99665.86;1751746;82;21294;-70
2021/04/03 05:21:36;;;;;;;28.83;13.93;;;;;;;13.27;48.21;99672.41;1753355;82;21169;-70
2021/04/03 05:24:10;;;;;;;28.02;12.73;;;;;;;13.95;46.16;99669.55;1752865;82;21160;-69
2021/04/03 05:26:43;;;;;;;19.07;10.63;;;;;;;14.53;45.13;99672.22;1753190;82;21152;-66
2021/04/03 05:29:16;;;;;;;22.32;10.55;;;;;;;15.23;43.19;99668.34;1751841;82;21311;-68
2021/04/03 05:31:49;;;;;;;22.62;11.03;;;;;;;15.65;41.92;99669.06;1753143;82;21802;-69
2021/04/03 05:34:23;;;;;;;35.30;11.48;;;;;;;15.52;41.65;99690.00;1753189;82;21263;-70
2021/04/03 05:36:57;;;;;;;20.30;11.18;;;;;;;15.19;42.06;99674.95;1749992;82;21674;-68
2021/04/03 05:39:31;;;;;;;20.50;10.78;;;;;;;15.15;42.46;99668.41;1752314;82;21279;-69
2021/04/03 05:42:05;;;;;;;22.58;11.20;;;;;;;15.39;42.12;99671.30;1753553;82;21263;-69
2021/04/03 05:44:38;;;;;;;20.02;10.85;;;;;;;15.35;42.03;99664.27;1752733;82;21169;-69
2021/04/03 05:47:12;;;;;;;20.60;10.43;;;;;;;15.48;41.90;99670.24;1753200;82;21714;-68
2021/04/03 05:49:45;;;;;;;;;;;;;;;15.68;41.56;99675.80;1749965;81;21184;-69
2021/04/03 05:52:19;;;;;;;;;;;;;;;15.73;41.33;99674.27;1759034;81;20297;-66
2021/04/03 05:54:52;;;;;;;23.02;12.63;;;;;;;15.91;41.19;99681.28;1798618;80;20260;-68
2021/04/03 05:57:25;;;;;;;24.40;11.78;;;;;;;16.46;40.76;99685.16;1799105;80;21271;-69
2021/04/03 05:59:58;;;;;;;29.07;12.50;;;;;;;16.75;39.77;99683.27;1789092;80;21157;-68
2021/04/03 06:02:42;;;;;;;27.27;12.28;;;;;;;16.86;39.38;99688.53;1789515;80;21331;-66
2021/04/03 06:05:12;;;;;;;24.35;12.63;;;;;;;17.09;39.04;99683.05;1789861;80;21161;-66
2021/04/03 06:07:45;;;;;;;26.48;13.25;;;;;;;17.55;38.45;99684.23;1790242;80;21288;-67
2021/04/03 06:10:20;;;;;;;21.57;13.83;;;;;;;17.96;37.97;99677.09;1788779;80;21180;-69
2021/04/03 06:12:53;;;;;;;27.87;13.00;;;;;;;18.17;37.21;99670.34;1787094;80;21307;-70
2021/04/03 06:15:35;;;;;;;24.02;15.03;;;;;;;17.83;37.68;99679.70;1787073;80;21298;-68
2021/04/03 06:18:11;;;;;;;25.97;15.32;;;;;;;17.49;38.51;99683.64;1785448;80;21209;-68
2021/04/03 06:20:45;;;;;;;21.95;13.85;;;;;;;17.49;38.97;99679.17;1786064;80;21228;-68
2021/04/03 06:23:18;;;;;;;31.35;14.15;;;;;;;17.55;39.12;99677.62;1787976;80;21137;-69
2021/04/03 06:25:58;;;;;;;25.05;15.00;;;;;;;17.37;39.07;99679.39;1761565;80;21990;-68
2021/04/03 06:28:34;;;;;;;25.80;14.70;;;;;;;16.78;39.94;99675.47;1733884;82;21181;-68
2021/04/03 06:31:17;;;;;;;21.60;13.10;;;;;;;16.20;41.26;99683.06;1742744;82;21288;-67
2021/04/03 06:33:50;;;;;;;26.35;12.90;;;;;;;15.70;42.60;99696.22;1785400;80;22043;-69
2021/04/03 06:36:25;;;;;;;18.62;13.30;;;;;;;15.29;43.75;99693.98;1731279;82;21204;-69
2021/04/03 06:39:00;;;;;;;29.02;14.40;;;;;;;14.91;44.67;99698.11;1732293;82;21192;-69
2021/04/03 06:41:33;;;;;;;26.62;14.63;;;;;;;14.53;45.79;99694.11;1731889;82;22173;-69
2021/04/03 06:44:12;;;;;;;22.82;13.78;;;;;;;14.20;46.54;99695.27;1715242;82;21295;-69
2021/04/03 06:46:47;;;;;;;24.47;14.50;;;;;;;13.86;47.45;99701.33;1703217;83;21283;-68
2021/04/03 06:49:22;;;;;;;27.85;15.78;;;;;;;13.48;48.32;99712.13;1732643;82;21315;-69
2021/04/03 06:51:55;;;;;;;;;;;;;;;13.15;49.32;99724.51;1779828;80;21165;-69
2021/04/03 06:54:27;;;;;;;24.65;15.32;;;;;;;12.85;50.10;99718.55;1780893;80;20156;-69
2021/04/03 06:57:01;;;;;;;23.35;14.80;;;;;;;12.54;51.12;99716.20;1772248;80;21215;-71
2021/04/03 06:59:36;;;;;;;32.13;16.75;;;;;;;12.29;51.83;99715.83;1781790;79;21179;-70
2021/04/03 07:02:09;;;;;;;28.80;15.55;;;;;;;12.12;52.47;99721.03;1798229;79;21298;-70
2021/04/03 07:04:43;;;;;;;23.97;15.17;;;;;;;11.95;53.12;99717.19;1799293;79;21168;-70
2021/04/03 07:07:16;;;;;;;25.20;15.65;;;;;;;11.80;53.67;99715.64;1796530;79;21334;-71
2021/04/03 07:09:49;;;;;;;23.42;15.00;;;;;;;11.70;54.26;99707.58;1795125;80;21303;-71
2021/04/03 07:12:22;;;;;;;25.82;15.28;;;;;;;11.61;54.70;99716.35;1795264;80;21307;-71
2021/04/03 07:14:56;;;;;;;25.90;16.37;;;;;;;11.49;55.16;99723.14;1795865;80;21323;-69
2021/04/03 07:17:29;;;;;;;26.10;17.27;;;;;;;11.32;55.59;99716.66;1793047;80;21177;-67
2021/04/03 07:20:03;;;;;;;30.50;16.65;;;;;;;11.17;56.29;99719.49;1793478;80;21493;-68
2021/04/03 07:22:36;;;;;;;29.05;17.12;;;;;;;11.05;57.23;99722.02;1792940;80;21204;-66
2021/04/03 07:25:10;;;;;;;35.33;19.20;;;;;;;10.92;57.88;99724.19;1794053;80;21306;-67
2021/04/03 07:27:46;;;;;;;29.45;17.87;;;;;;;10.77;59.48;99728.65;1790279;80;21121;-67
2021/04/03 07:30:42;;;;;;;29.10;17.73;;;;;;;10.62;60.92;99728.02;1768518;79;21188;-66
2021/04/03 07:33:23;;;;;;;29.18;17.90;;;;;;;10.45;61.87;99724.42;1756695;80;21279;-68
2021/04/03 07:36:09;;;;;;;33.08;19.23;;;;;;;10.37;63.27;99723.50;1778569;79;21322;-68
2021/04/03 07:38:39;;;;;;;33.58;20.88;;;;;;;10.32;64.24;99717.91;1774030;80;21287;-67
2021/04/03 07:41:16;;;;;;;42.75;24.72;;;;;;;10.30;64.94;99725.89;1763264;81;21287;-65
2021/04/03 07:43:51;;;;;;;35.48;23.02;;;;;;;10.30;65.55;99722.44;1763604;81;21278;-68
2021/04/03 07:46:40;;;;;;;43.23;25.55;;;;;;;10.29;65.99;99722.12;1763153;81;21478;-67
2021/04/03 07:49:33;;;;;;;37.60;24.02;;;;;;;10.31;66.59;99724.93;1763439;81;21208;-67
2021/04/03 07:52:07;;;;;;;33.65;22.22;;;;;;;10.31;66.93;99730.64;1772672;80;22025;-67
2021/04/03 07:54:41;;;;;;;37.25;21.45;;;;;;;10.29;67.24;99737.82;1739002;81;21200;-68
2021/04/03 07:57:14;;;;;;;38.95;21.33;;;;;;;10.24;67.59;99744.80;1748342;82;21299;-67
2021/04/03 07:59:51;;;;;;;53.08;26.97;;;;;;;10.23;68.01;99733.16;1715436;82;21617;-68
2021/04/03 08:02:25;;;;;;;60.45;33.10;;;;;;;10.19;68.26;99738.35;1747438;82;21307;-67
2021/04/03 08:04:58;;;;;;;65.15;37.65;;;;;;;10.06;68.56;99746.50;1783386;80;21322;-65
2021/04/03 08:07:32;;;;;;;80.67;42.78;;;;;;;9.92;68.93;99737.34;1790377;79;22116;-65
2021/04/03 08:10:09;;;;;;;86.42;46.28;;;;;;;9.83;69.28;99745.23;1794182;80;21291;-67
2021/04/03 08:12:43;;;;;;;74.22;41.70;;;;;;;9.79;69.55;99736.84;1788782;80;21299;-68
2021/04/03 08:15:23;;;;;;;78.12;42.30;;;;;;;9.73;69.77;99740.52;1793924;79;21188;-68
2021/04/03 08:17:59;;;;;;;75.00;41.73;;;;;;;9.72;70.09;99740.98;1793462;80;22124;-66
2021/04/03 08:20:33;;;;;;;70.15;42.62;;;;;;;9.71;70.34;99738.05;1794506;80;21875;-66
2021/04/03 08:23:07;;;;;;;69.20;41.58;;;;;;;9.69;70.43;99739.99;1765159;80;21299;-68
2021/04/03 08:25:40;;;;;;;69.95;40.52;;;;;;;9.68;70.67;99736.20;1793753;80;21459;-67
2021/04/03 08:28:22;;;;;;;67.45;40.45;;;;;;;9.69;70.88;99732.16;1789982;80;21479;-67
2021/04/03 08:30:55;;;;;;;71.95;41.08;;;;;;;9.71;71.20;99736.75;1790608;79;22092;-67
2021/04/03 08:33:33;;;;;;;65.95;40.20;;;;;;;9.74;71.37;99735.64;1793149;80;21851;-67
2021/04/03 08:36:12;;;;;;;61.40;37.05;;;;;;;9.76;71.60;99738.45;1793602;80;21366;-66
2021/04/03 08:38:45;;;;;;;57.53;35.68;;;;;;;9.75;71.84;99742.02;1793139;80;22049;-64
2021/04/03 08:41:21;;;;;;;57.43;33.95;;;;;;;9.73;71.94;99747.05;1793965;80;22070;-66
2021/04/03 08:43:55;;;;;;;50.70;32.60;;;;;;;9.69;72.15;99753.06;1793045;80;21407;-67
2021/04/03 08:46:27;;;;;;;;;;;;;;;9.69;72.41;99752.23;1796403;80;21165;-66
2021/04/03 08:49:01;;;;;;;54.85;32.90;;;;;;;9.71;72.62;99755.52;1793183;80;20264;-66
2021/04/03 08:51:35;;;;;;;56.85;31.12;;;;;;;9.65;72.82;99759.52;1793608;80;21304;-66
2021/04/03 08:54:08;;;;;;;54.05;31.57;;;;;;;9.65;73.13;99758.20;1764628;80;21350;-67
2021/04/03 08:56:42;;;;;;;52.33;30.02;;;;;;;9.63;73.22;99757.53;1786561;79;22161;-66
2021/04/03 08:59:17;;;;;;;51.08;31.12;;;;;;;9.61;73.36;99766.00;1786508;79;21299;-66
2021/04/03 09:01:53;;;;;;;55.92;31.10;;;;;;;9.61;73.64;99766.00;1789020;80;22136;-67
2021/04/03 09:04:26;;;;;;;49.85;28.83;;;;;;;9.65;73.85;99767.36;1790003;80;21314;-67
2021/04/03 09:06:59;;;;;;;59.23;33.77;;;;;;;9.68;73.87;99763.16;1762911;80;21460;-68
2021/04/03 09:09:33;;;;;;;50.60;30.23;;;;;;;9.64;73.97;99765.73;1792466;80;21291;-68
2021/04/03 09:12:15;;;;;;;48.78;28.90;;;;;;;9.63;74.04;99765.37;1791060;80;21256;-69
2021/04/03 09:14:54;;;;;;;48.30;29.15;;;;;;;9.57;73.97;99765.13;1789633;80;21303;-69
2021/04/03 09:17:27;;;;;;;53.10;28.10;;;;;;;9.52;74.16;99764.72;1791207;80;21639;-68
2021/04/03 09:20:13;;;;;;;45.33;28.60;;;;;;;9.53;74.40;99762.46;1790013;80;21259;-67
2021/04/03 09:22:47;;;;;;;45.35;27.58;;;;;;;9.56;74.58;99765.59;1790077;80;21189;-69
2021/04/03 09:25:22;;;;;;;46.63;28.62;;;;;;;9.54;74.44;99769.31;1789791;80;21201;-68
2021/04/03 09:28:06;;;;;;;43.50;28.15;;;;;;;9.54;74.64;99766.70;1790885;80;21328;-65
2021/04/03 09:30:42;;;;;;;;;;;;;;;9.55;74.68;99761.36;1793429;80;21295;-66
2021/04/03 09:33:28;;;;;;;46.75;30.05;;;;;;;9.54;74.56;99767.53;1789885;80;20272;-68
2021/04/03 09:36:13;;;;;;;50.40;30.05;;;;;;;9.49;74.82;99769.27;1790880;80;22139;-66
2021/04/03 09:38:46;;;;;;;51.30;30.97;;;;;;;9.50;74.86;99766.98;1791945;80;21205;-67
2021/04/03 09:41:30;;;;;;;53.52;31.25;;;;;;;9.53;75.02;99770.30;1791430;80;21295;-67
2021/04/03 09:44:03;;;;;;;47.30;28.50;;;;;;;9.52;75.08;99765.55;1789849;80;21181;-67
2021/04/03 09:46:36;;;;;;;44.30;27.13;;;;;;;9.52;75.16;99766.02;1791226;80;21307;-67
2021/04/03 09:49:11;;;;;;;47.03;28.53;;;;;;;9.52;75.29;99775.17;1776120;79;21204;-68
2021/04/03 09:51:44;;;;;;;44.20;26.48;;;;;;;9.48;75.35;99775.95;1769129;81;21646;-67
2021/04/03 09:54:18;;;;;;;48.30;28.80;;;;;;;9.47;75.52;99777.73;1769497;81;22057;-69
2021/04/03 09:56:53;;;;;;;47.90;29.00;;;;;;;9.47;75.62;99782.13;1769463;81;21176;-67
2021/04/03 09:59:26;;;;;;;45.60;27.55;;;;;;;9.41;75.92;99779.58;1769240;81;22124;-67
2021/04/03 10:02:00;;;;;;;45.67;28.30;;;;;;;9.46;76.23;99777.38;1768234;80;22020;-66
2021/04/03 10:04:33;;;;;;;49.53;30.08;;;;;;;9.56;76.34;99780.45;1737038;81;21470;-66
2021/04/03 10:07:11;;;;;;;49.10;28.53;;;;;;;9.63;76.34;99781.53;1764252;81;22101;-65
2021/04/03 10:09:45;;;;;;;48.75;30.25;;;;;;;9.72;76.52;99784.62;1764237;80;21256;-68
2021/04/03 10:12:19;;;;;;;46.77;28.80;;;;;;;9.76;76.35;99788.12;1737793;81;21341;-68
2021/04/03 10:14:52;;;;;;;50.75;30.48;;;;;;;9.81;76.36;99786.38;1763443;81;21298;-68
2021/04/03 10:17:25;;;;;;;;;;;;;;;9.88;76.41;99784.84;1766272;81;21298;-69
2021/04/03 10:20:00;;;;;;;47.53;29.32;;;;;;;9.93;76.27;99783.94;1763328;81;20709;-69
2021/04/03 10:22:33;;;;;;;45.33;29.87;;;;;;;9.91;76.02;99788.48;1763914;81;21360;-67
2021/04/03 10:25:07;;;;;;;51.80;31.70;;;;;;;9.87;76.06;99793.64;1763480;81;21200;-68
2021/04/03 10:27:40;;;;;;;49.70;29.18;;;;;;;9.83;76.04;99785.27;1763727;81;22300;-67
2021/04/03 10:30:14;;;;;;;34.70;22.90;;;;;;;9.82;76.08;99786.70;1763314;81;21482;-69
2021/04/03 10:32:47;;;;;;;46.90;30.35;;;;;;;9.84;76.31;99789.52;1763412;81;21291;-68
2021/04/03 10:35:21;;;;;;;48.17;29.40;;;;;;;9.88;76.49;99784.37;1763301;81;22175;-68
2021/04/03 10:37:54;;;;;;;46.45;29.12;;;;;;;9.87;76.09;99792.33;1763855;81;21176;-68
2021/04/03 10:40:27;;;;;;;46.70;28.25;;;;;;;9.83;76.17;99787.89;1763913;81;21310;-68
2021/04/03 10:43:00;;;;;;;45.38;29.18;;;;;;;9.82;76.27;99791.93;1763648;81;21289;-69
2021/04/03 10:45:35;;;;;;;48.35;30.82;;;;;;;9.80;76.32;99792.56;1763197;81;21307;-68
2021/04/03 10:48:09;;;;;;;47.88;31.80;;;;;;;9.79;76.38;99789.12;1763876;81;21480;-67
2021/04/03 10:50:42;;;;;;;49.25;31.82;;;;;;;9.79;76.36;99786.50;1763389;81;22001;-69
2021/04/03 10:53:15;;;;;;;63.85;36.20;;;;;;;9.81;76.53;99791.13;1763694;81;21453;-69
2021/04/03 10:55:49;;;;;;;53.15;32.28;;;;;;;9.83;76.55;99791.81;1763319;81;21244;-67
2021/04/03 10:58:22;;;;;;;54.80;32.10;;;;;;;9.87;76.56;99789.24;1742672;81;22119;-67
2021/04/03 11:00:56;;;;;;;64.25;33.85;;;;;;;9.89;76.55;99793.01;1763271;81;21322;-67
2021/04/03 11:03:29;;;;;;;68.62;35.90;;;;;;;9.89;76.61;99789.92;1769940;80;21184;-68
2021/04/03 11:06:02;;;;;;;67.62;36.45;;;;;;;9.91;76.69;99786.67;1783826;80;21349;-67
2021/04/03 11:08:36;;;;;;;55.17;33.73;;;;;;;9.95;76.64;99790.67;1778354;80;21230;-67
2021/04/03 11:11:19;;;;;;;63.58;39.63;;;;;;;9.98;76.58;99794.28;1779253;80;21416;-67
2021/04/03 11:14:15;;;;;;;55.83;35.85;;;;;;;10.00;76.58;99792.85;1777236;80;21576;-67
2021/04/03 11:16:49;;;;;;;62.35;37.30;;;;;;;9.99;76.52;99791.19;1788689;78;21164;-67
2021/04/03 11:19:22;;;;;;;59.23;36.75;;;;;;;10.00;76.56;99792.38;1796673;79;21294;-69
2021/04/03 11:21:56;;;;;;;52.80;33.78;;;;;;;10.01;76.74;99797.09;1794897;79;22005;-68
2021/04/03 11:24:29;;;;;;;52.48;31.97;;;;;;;10.02;76.70;99791.74;1796017;79;21302;-66
2021/04/03 11:27:03;;;;;;;;;;;;;;;10.06;76.66;99798.80;1798243;79;21286;-66
2021/04/03 11:29:38;;;;;;;48.13;30.65;;;;;;;10.10;76.70;99789.72;1794208;79;20287;-68
2021/04/03 11:32:13;;;;;;;47.48;31.73;;;;;;;10.11;76.71;99788.29;1796291;79;21303;-67
2021/04/03 11:34:56;;;;;;;46.37;33.65;;;;;;;10.17;76.63;99786.07;1796231;79;21221;-65
2021/04/03 11:37:35;;;;;;;45.43;32.08;;;;;;;10.23;76.65;99779.77;1790201;79;21584;-65
2021/04/03 11:40:17;;;;;;;46.60;30.57;;;;;;;10.29;76.58;99780.51;1762695;81;21357;-67
2021/04/03 11:42:55;;;;;;;49.53;29.20;;;;;;;10.35;76.41;99779.91;1752565;81;21406;-67
2021/04/03 11:45:41;;;;;;;65.28;33.42;;;;;;;10.37;76.33;99778.45;1747397;82;21451;-68
2021/04/03 11:48:24;;;;;;;60.60;33.08;;;;;;;10.42;76.45;99787.99;1747253;82;21327;-69
2021/04/03 11:50:59;;;;;;;39.95;25.37;;;;;;;10.48;76.37;99785.64;1778611;80;21495;-67
2021/04/03 11:53:44;;;;;;;38.42;25.57;;;;;;;10.49;76.23;99792.50;1786386;79;21281;-65
2021/04/03 11:56:29;;;;;;;35.43;25.23;;;;;;;10.53;76.21;99793.84;1772001;80;21355;-65
2021/04/03 11:59:05;;;;;;;35.92;24.30;;;;;;;10.58;76.14;99792.12;1786670;80;21285;-68
2021/04/03 12:01:40;;;;;;;31.75;22.65;;;;;;;10.58;75.99;99781.14;1771587;81;21342;-66
2021/04/03 12:04:14;;;;;;;37.33;25.37;;;;;;;10.60;75.95;99789.66;1785460;79;21470;-65
2021/04/03 12:06:47;;;;;;;35.73;24.10;;;;;;;10.65;75.97;99791.88;1752514;80;21208;-68